Time;durP1;ratioP1;P1;durP2;ratioP2;P2;SDS_P1;SDS_P2;PMS_P1;PMS_P2;Temp;Humidity;BMP_temperature;BMP_pressure;BME280_temperature;BME280_humidity;BME280_pressure;Samples;Min_cycle;Max_cycle;Signal;HPM_P1;HPM_P2
2021/10/19 00:00:28;;;;;;;;;23.00;21.75;;;;;18.56;69.65;101414.31;2086257;28;47451;-50
2021/10/19 00:01:28;;;;;;;;;27.25;24.75;;;;;18.56;69.49;101415.19;2075587;28;46858;-47
2021/10/19 00:02:29;;;;;;;;;21.50;21.50;;;;;18.57;69.48;101416.06;2075547;28;48364;-48
2021/10/19 00:03:30;;;;;;;;;24.20;19.60;;;;;18.58;69.10;101412.41;2089928;28;47248;-48
2021/10/19 00:04:30;;;;;;;;;25.00;24.50;;;;;18.58;69.54;101420.47;2087492;28;47844;-46
2021/10/19 00:05:31;;;;;;;;;20.25;20.00;;;;;18.58;69.53;101417.78;2087859;28;47332;-48
2021/10/19 00:06:31;;;;;;;;;18.25;17.00;;;;;18.59;69.21;101416.84;2077888;28;47438;-47
2021/10/19 00:07:32;;;;;;;;;19.25;19.25;;;;;18.59;69.55;101416.84;2079249;28;47346;-50
2021/10/19 00:08:32;;;;;;;;;21.50;21.50;;;;;18.59;69.41;101420.41;2091121;28;48135;-48
2021/10/19 00:09:33;;;;;;;;;18.75;18.75;;;;;18.59;69.32;101414.16;2089723;28;47642;-52
2021/10/19 00:10:33;;;;;;;;;23.50;22.50;;;;;18.61;69.41;101412.28;2084389;28;46112;-48
2021/10/19 00:11:34;;;;;;;;;25.00;25.00;;;;;18.60;69.39;101411.41;2085267;28;47608;-49
2021/10/19 00:12:35;;;;;;;;;22.00;21.25;;;;;18.63;69.55;101419.31;2075606;28;46970;-49
2021/10/19 00:13:36;;;;;;;;;24.50;21.50;;;;;18.61;69.54;101413.16;2075473;28;48169;-47
2021/10/19 00:14:37;;;;;;;;;20.40;20.20;;;;;18.62;69.19;101409.50;2084372;28;47623;-53
2021/10/19 00:15:37;;;;;;;;;24.75;22.25;;;;;18.62;69.17;101411.34;2087960;28;45997;-47
2021/10/19 00:16:38;;;;;;;;;23.75;20.00;;;;;18.62;69.26;101414.91;2084492;28;46958;-46
2021/10/19 00:17:40;;;;;;;;;20.00;20.00;;;;;18.63;69.41;101416.63;2084100;28;47086;-50
2021/10/19 00:18:41;;;;;;;;;20.40;20.40;;;;;18.63;69.56;101410.38;2075635;28;48588;-49
2021/10/19 00:19:42;;;;;;;;;16.50;16.00;;;;;18.64;69.24;101406.78;2075217;28;48130;-47
2021/10/19 00:20:42;;;;;;;;;21.60;19.60;;;;;18.64;69.40;101414.84;2084428;28;47099;-51
2021/10/19 00:21:43;;;;;;;;;21.00;20.25;;;;;18.64;69.27;101407.66;2083922;28;47120;-49
2021/10/19 00:22:44;;;;;;;;;20.75;19.00;;;;;18.63;69.47;101411.25;2080522;28;47292;-46
2021/10/19 00:23:44;;;;;;;;;20.50;19.25;;;;;18.64;69.46;101404.97;2083326;28;47679;-48
2021/10/19 00:24:45;;;;;;;;;20.75;18.00;;;;;18.64;69.33;101414.84;2092557;28;48058;-51
2021/10/19 00:25:45;;;;;;;;;21.50;19.50;;;;;18.64;69.53;101413.03;2088856;28;48350;-49
2021/10/19 00:26:46;;;;;;;;;23.50;23.50;;;;;18.64;69.39;101418.41;2084576;28;47113;-48
2021/10/19 00:27:47;;;;;;;;;18.50;18.50;;;;;18.64;69.13;101421.09;2083979;28;48013;-49
2021/10/19 00:28:48;;;;;;;;;20.60;19.80;;;;;18.65;69.41;101427.34;2075581;28;47296;-47
2021/10/19 00:29:49;;;;;;;;;19.50;18.75;;;;;18.65;69.16;101422.84;2067072;28;47421;-48
2021/10/19 00:30:49;;;;;;;;;18.60;18.00;;;;;18.66;69.22;101421.03;2080873;28;47715;-47
2021/10/19 00:31:52;;;;;;;;;21.75;20.75;;;;;18.66;69.29;101421.03;2083178;28;47414;-49
2021/10/19 00:32:53;;;;;;;;;18.60;17.00;;;;;18.66;69.39;101423.72;2075827;28;48655;-47
2021/10/19 00:33:53;;;;;;;;;18.40;18.40;;;;;18.66;69.14;101421.91;2082183;28;47536;-48
2021/10/19 00:34:54;;;;;;;;;18.25;17.75;;;;;18.66;69.12;101418.34;2075609;28;47497;-48
2021/10/19 00:35:54;;;;;;;;;17.50;17.50;;;;;18.67;69.28;101422.78;2079893;28;47768;-49
2021/10/19 00:36:55;;;;;;;;;22.75;22.75;;;;;18.68;69.15;101421.88;2078939;28;46942;-49
2021/10/19 00:37:55;;;;;;;;;18.25;18.25;;;;;18.67;69.30;101409.34;2085084;28;47383;-46
2021/10/19 00:38:56;;;;;;;;;19.00;17.25;;;;;18.67;69.43;101412.03;2092576;28;47978;-49
2021/10/19 00:39:56;;;;;;;;;17.00;17.00;;;;;18.68;69.37;101408.41;2087314;28;46226;-47
2021/10/19 00:40:57;;;;;;;;;18.00;16.75;;;;;18.67;68.92;101404.84;2084932;28;47045;-51
2021/10/19 00:41:57;;;;;;;;;18.25;18.25;;;;;18.68;69.18;101409.28;2076214;28;47229;-50
2021/10/19 00:42:58;;;;;;;;;19.75;18.75;;;;;18.69;69.49;101407.47;2073202;28;48847;-50
2021/10/19 00:43:59;;;;;;;;;19.00;18.25;;;;;18.69;69.32;101405.66;2076219;28;46957;-52
2021/10/19 00:44:59;;;;;;;;;16.80;15.00;;;;;18.69;69.14;101396.72;2085950;28;45629;-48
2021/10/19 00:46:00;;;;;;;;;17.75;17.00;;;;;18.69;69.28;101402.09;2086170;28;47223;-48
2021/10/19 00:47:00;;;;;;;;;17.00;17.00;;;;;18.70;69.33;101403.84;2090316;28;46068;-50
2021/10/19 00:48:01;;;;;;;;;18.00;17.00;;;;;18.70;69.07;101404.72;2087065;28;47001;-51
2021/10/19 00:49:02;;;;;;;;;15.20;15.20;;;;;18.70;69.40;101401.16;2084058;28;48139;-48
2021/10/19 00:50:03;;;;;;;;;16.00;16.00;;;;;18.70;68.99;101393.09;2084205;28;47291;-50
2021/10/19 00:51:04;;;;;;;;;17.00;16.20;;;;;18.69;69.27;101404.78;2084127;28;47276;-46
2021/10/19 00:52:04;;;;;;;;;15.50;15.25;;;;;18.70;69.10;101399.34;2075203;28;47219;-49
2021/10/19 00:53:05;;;;;;;;;19.50;16.50;;;;;18.71;69.25;101397.53;2081721;28;45670;-48
2021/10/19 00:54:07;;;;;;;;;16.00;16.00;;;;;18.71;69.09;101401.09;2090405;28;46697;-49
2021/10/19 00:55:08;;;;;;;;;15.60;15.60;;;;;18.71;69.08;101402.91;2083767;28;47228;-48
2021/10/19 00:56:09;;;;;;;;;14.00;14.00;;;;;18.70;68.97;101395.78;2080955;28;47377;-51
2021/10/19 00:57:10;;;;;;;;;16.25;16.25;;;;;18.70;69.23;101402.03;2083522;28;45706;-52
2021/10/19 00:58:11;;;;;;;;;18.80;18.20;;;;;18.71;69.47;101406.47;2083594;28;48299;-49
2021/10/19 00:59:14;;;;;;;;;15.25;15.00;;;;;18.71;68.88;101405.59;2075036;28;45962;-50
2021/10/19 01:00:15;;;;;;;;;15.40;14.20;;;;;18.71;69.29;101409.16;2084042;28;48212;-48
2021/10/19 01:01:15;;;;;;;;;15.25;14.75;;;;;18.71;69.09;101414.53;2084183;28;48345;-49
2021/10/19 01:02:16;;;;;;;;;17.25;17.00;;;;;18.71;69.01;101413.66;2084085;28;48344;-48
2021/10/19 01:03:17;;;;;;;;;14.50;14.00;;;;;18.72;69.18;101415.41;2088919;28;48177;-51
2021/10/19 01:04:17;;;;;;;;;16.00;15.25;;;;;18.71;69.07;101414.53;2075258;28;47007;-51
2021/10/19 01:05:19;;;;;;;;;17.25;17.25;;;;;18.72;68.92;101410.91;2074849;28;47345;-52
2021/10/19 01:06:20;;;;;;;;;13.80;13.80;;;;;18.72;69.02;101421.66;2084158;28;47553;-49
2021/10/19 01:07:21;;;;;;;;;16.00;13.00;;;;;18.73;69.13;101425.22;2088352;28;47420;-50
2021/10/19 01:08:22;;;;;;;;;17.40;15.20;;;;;18.73;69.21;101419.84;2092317;28;47116;-51
2021/10/19 01:09:23;;;;;;;;;16.25;14.50;;;;;18.73;68.88;101418.03;2083253;28;45630;-49
2021/10/19 01:10:23;;;;;;;;;17.80;15.80;;;;;18.73;68.85;101419.84;2083299;28;47179;-52
2021/10/19 01:11:24;;;;;;;;;17.50;16.75;;;;;18.74;68.99;101422.44;2086157;28;47218;-49
2021/10/19 01:12:25;;;;;;;;;12.50;12.00;;;;;18.74;69.21;101424.25;2081699;28;48393;-48
2021/10/19 01:13:27;;;;;;;;;17.00;13.75;;;;;18.74;69.24;101429.66;2074885;28;47559;-47
2021/10/19 01:14:27;;;;;;;;;13.40;13.40;;;;;18.74;68.84;101424.25;2083562;28;47379;-48
2021/10/19 01:15:32;;;;;;;;;13.75;13.25;;;;;18.73;68.95;101426.09;2092015;28;48554;-50
2021/10/19 01:16:33;;;;;;;;;17.60;14.40;;;;;18.75;68.98;101434.06;2092510;28;47086;-48
2021/10/19 01:17:39;;;;;;;;;15.00;15.00;;;;;18.74;69.38;101435.03;2089781;28;45706;-48
2021/10/19 01:18:40;;;;;;;;;16.20;14.80;;;;;18.75;69.27;101436.78;2086428;28;48503;-46
2021/10/19 01:19:40;;;;;;;;;12.75;11.50;;;;;18.75;68.92;101432.25;2091966;28;47428;-49
2021/10/19 01:20:41;;;;;;;;;14.25;14.00;;;;;18.75;68.88;101436.78;2083320;28;47297;-52
2021/10/19 01:21:50;;;;;;;;;13.20;13.20;;;;;18.75;68.86;101437.63;2081282;28;48704;-49
2021/10/19 01:22:52;;;;;;;;;16.40;16.40;;;;;18.76;68.87;101436.69;2088613;28;47188;-52
2021/10/19 01:23:52;;;;;;;;;12.60;12.60;;;;;18.77;69.17;101440.25;2085261;28;47479;-51
2021/10/19 01:24:53;;;;;;;;;13.75;12.25;;;;;18.77;68.97;101429.50;2089319;28;47662;-47
2021/10/19 01:25:53;;;;;;;;;13.75;13.50;;;;;18.78;69.01;101436.63;2088515;28;47420;-51
2021/10/19 01:26:54;;;;;;;;;15.00;15.00;;;;;18.79;68.80;101438.38;2079630;28;45497;-50
2021/10/19 01:28:01;;;;;;;;;16.50;16.25;;;;;18.79;69.07;101433.00;2083097;28;48172;-48
2021/10/19 01:29:02;;;;;;;;;14.20;13.60;;;;;18.78;68.91;101425.88;2083284;28;45335;-50
2021/10/19 01:30:03;;;;;;;;;15.00;15.00;;;;;18.79;69.04;101433.00;2082980;28;48136;-49
2021/10/19 01:31:05;;;;;;;;;17.75;16.00;;;;;18.79;68.88;101425.78;2083505;28;48066;-47
2021/10/19 01:32:06;;;;;;;;;14.00;12.20;;;;;18.79;69.05;101423.09;2083348;28;46442;-55
2021/10/19 01:33:06;;;;;;;;;15.25;14.50;;;;;18.80;69.17;101426.66;2083119;28;47501;-49
2021/10/19 01:34:07;;;;;;;;;14.00;14.00;;;;;18.80;68.85;101421.28;2083218;28;46959;-48
2021/10/19 01:35:08;;;;;;;;;14.25;14.00;;;;;18.81;69.13;101420.38;2091905;28;48045;-46
2021/10/19 01:36:10;;;;;;;;;13.80;13.80;;;;;18.79;68.74;101419.53;2098314;28;48204;-51
2021/10/19 01:37:10;;;;;;;;;12.80;12.80;;;;;18.80;69.12;101413.22;2087809;28;47419;-48
2021/10/19 01:38:18;;;;;;;;;12.75;12.75;;;;;18.80;68.92;101413.22;2087328;28;47047;-47
2021/10/19 01:39:19;;;;;;;;;14.80;13.20;;;;;18.80;68.99;101407.84;2092111;28;48159;-46
2021/10/19 01:40:19;;;;;;;;;14.50;13.50;;;;;18.79;69.03;101414.16;2088828;28;48045;-50
2021/10/19 01:41:19;;;;;;;;;16.25;13.50;;;;;18.80;68.93;101418.59;2088964;28;48089;-48
2021/10/19 01:42:20;;;;;;;;;15.00;14.25;;;;;18.80;69.02;101418.59;2092950;28;47724;-51
2021/10/19 01:43:23;;;;;;;;;13.00;13.00;;;;;18.80;68.69;101411.44;2090928;28;46875;-48
2021/10/19 01:44:23;;;;;;;;;13.20;13.20;;;;;18.81;68.85;101420.38;2092101;28;47412;-48
2021/10/19 01:45:24;;;;;;;;;14.00;13.75;;;;;18.80;68.35;101414.13;2082857;28;47233;-52
2021/10/19 01:46:25;;;;;;;;;10.33;10.33;;;;;18.81;68.85;101413.19;2079266;28;47268;-50
2021/10/19 01:47:25;;;;;;;;;14.75;14.75;;;;;18.81;68.83;101415.00;2083768;28;47008;-50
2021/10/19 01:48:27;;;;;;;;;13.50;12.75;;;;;18.81;68.88;101402.44;2091963;28;46212;-49
2021/10/19 01:49:28;;;;;;;;;11.75;11.00;;;;;18.81;68.77;101413.19;2091761;28;47627;-51
2021/10/19 01:50:28;;;;;;;;;14.00;14.00;;;;;18.83;68.78;101414.94;2083443;28;48405;-48
2021/10/19 01:51:29;;;;;;;;;13.00;13.00;;;;;18.81;68.77;101405.13;2082919;28;47490;-48
2021/10/19 01:52:29;;;;;;;;;15.50;15.00;;;;;18.82;68.71;101406.00;2085836;28;47083;-48
2021/10/19 01:53:30;;;;;;;;;12.00;12.00;;;;;18.83;68.84;101406.84;2091583;28;47190;-51
2021/10/19 01:54:30;;;;;;;;;14.00;13.00;;;;;18.82;68.72;101406.00;2083188;28;46182;-46
2021/10/19 01:55:30;;;;;;;;;14.00;14.00;;;;;18.82;68.58;101408.69;2074480;28;46998;-48
2021/10/19 01:56:31;;;;;;;;;13.25;13.00;;;;;18.83;68.73;101406.84;2083255;28;45667;-51
2021/10/19 01:57:32;;;;;;;;;15.00;14.50;;;;;18.82;68.81;101406.00;2087011;28;48419;-46
2021/10/19 01:58:32;;;;;;;;;14.50;13.50;;;;;18.83;68.80;101402.34;2088343;28;47063;-48
2021/10/19 01:59:32;;;;;;;;;12.00;11.50;;;;;18.83;68.81;101417.63;2087273;28;46528;-51
2021/10/19 02:00:34;;;;;;;;;11.50;10.75;;;;;18.84;68.81;101424.75;2088916;28;48026;-50
2021/10/19 02:01:38;;;;;;;;;11.60;11.40;;;;;18.83;68.63;101423.00;2086658;28;48172;-49
2021/10/19 02:02:40;;;;;;;;;11.20;11.20;;;;;18.84;68.55;101408.59;2095856;28;48521;-51
2021/10/19 02:03:40;;;;;;;;;13.20;12.80;;;;;18.84;68.65;101424.75;2066360;28;48115;-50
2021/10/19 02:04:41;;;;;;;;;14.00;14.00;;;;;18.83;68.57;101423.88;2066211;28;47329;-51
2021/10/19 02:05:41;;;;;;;;;12.25;11.25;;;;;18.85;68.97;101424.66;2083278;28;48366;-49
2021/10/19 02:06:42;;;;;;;;;10.00;10.00;;;;;18.85;68.69;101426.47;2083827;28;45914;-48
2021/10/19 02:07:42;;;;;;;;;11.75;10.25;;;;;18.87;68.63;101435.34;2083344;28;48124;-48
2021/10/19 02:08:43;;;;;;;;;12.33;11.00;;;;;18.87;68.38;101421.91;2083341;28;48357;-51
2021/10/19 02:09:43;;;;;;;;;13.75;13.50;;;;;18.86;68.52;101429.09;2083186;28;47346;-49
2021/10/19 02:10:44;;;;;;;;;12.67;12.67;;;;;18.87;68.55;101424.59;2084100;28;48397;-50
2021/10/19 02:11:44;;;;;;;;;12.00;12.00;;;;;18.86;68.61;101421.03;2079028;28;47724;-49
2021/10/19 02:12:45;;;;;;;;;14.25;12.50;;;;;18.87;68.73;101425.47;2066807;28;46989;-46
2021/10/19 02:13:46;;;;;;;;;13.67;13.33;;;;;18.87;68.71;101413.84;2081734;28;47253;-51
2021/10/19 02:14:46;;;;;;;;;10.00;10.00;;;;;18.87;68.74;101414.72;2083651;28;46787;-50
2021/10/19 02:15:47;;;;;;;;;14.00;14.00;;;;;18.86;68.49;101418.34;2088508;28;47231;-50
2021/10/19 02:16:47;;;;;;;;;12.00;12.00;;;;;18.87;68.44;101411.16;2086228;28;47379;-52
2021/10/19 02:17:48;;;;;;;;;14.00;13.33;;;;;18.86;68.78;101412.97;2086699;28;47389;-49
2021/10/19 02:18:48;;;;;;;;;13.00;12.00;;;;;18.86;68.60;101409.41;2083648;28;47088;-47
2021/10/19 02:19:49;;;;;;;;;13.67;13.67;;;;;18.86;68.75;101406.72;2083435;28;46262;-50
2021/10/19 02:20:49;;;;;;;;;11.00;10.67;;;;;18.86;68.62;101401.34;2083648;28;47354;-46
2021/10/19 02:21:50;;;;;;;;;14.33;13.67;;;;;18.85;68.57;101403.16;2083343;28;47027;-49
2021/10/19 02:22:52;;;;;;;;;13.33;12.67;;;;;18.86;68.37;101402.22;2085616;28;47417;-48
2021/10/19 02:23:52;;;;;;;;;11.60;10.20;;;;;18.87;68.78;101403.09;2091660;28;48370;-49
2021/10/19 02:24:53;;;;;;;;;13.00;13.00;;;;;18.86;68.37;101407.59;2082625;28;48400;-50
2021/10/19 02:25:53;;;;;;;;;12.33;12.33;;;;;18.86;68.74;101396.81;2074461;28;47207;-48
2021/10/19 02:26:54;;;;;;;;;14.00;13.67;;;;;18.87;68.65;101403.09;2074799;28;45391;-48
2021/10/19 02:27:54;;;;;;;;;15.00;15.00;;;;;18.87;68.23;101401.25;2087482;28;47303;-48
2021/10/19 02:28:55;;;;;;;;;14.00;13.67;;;;;18.86;68.76;101399.50;2091722;28;47340;-48
2021/10/19 02:29:55;;;;;;;;;11.00;11.00;;;;;18.86;68.57;101396.81;2091648;28;47116;-50
2021/10/19 02:30:56;;;;;;;;;15.67;15.00;;;;;18.87;68.35;101392.31;2091695;28;47370;-49
2021/10/19 02:31:56;;;;;;;;;12.00;12.00;;;;;18.86;68.55;101394.13;2091735;28;48059;-46
2021/10/19 02:32:57;;;;;;;;;18.00;16.00;;;;;18.87;68.73;101398.56;2091700;28;47346;-50
2021/10/19 02:33:57;;;;;;;;;13.00;11.67;;;;;18.86;68.36;101394.13;2081825;28;48096;-47
2021/10/19 02:34:58;;;;;;;;;14.00;13.00;;;;;18.86;68.54;101393.28;2074668;28;45218;-47
2021/10/19 02:35:58;;;;;;;;;13.33;12.33;;;;;18.87;68.60;101393.19;2088267;28;45345;-51
2021/10/19 02:36:59;;;;;;;;;12.25;12.25;;;;;18.86;68.69;101391.44;2090229;28;45229;-50
2021/10/19 02:37:59;;;;;;;;;16.75;13.75;;;;;18.87;68.62;101389.63;2083160;28;47406;-47
2021/10/19 02:39:00;;;;;;;;;14.33;12.00;;;;;18.86;68.37;101394.13;2083413;28;48216;-46
2021/10/19 02:40:01;;;;;;;;;14.00;13.25;;;;;18.87;68.50;101400.38;2077264;28;48559;-46
2021/10/19 02:41:02;;;;;;;;;12.00;12.00;;;;;18.86;68.40;101390.56;2088425;28;47347;-48
2021/10/19 02:42:02;;;;;;;;;11.33;11.00;;;;;18.86;68.53;101393.28;2087083;28;45249;-50
2021/10/19 02:43:03;;;;;;;;;14.00;13.00;;;;;18.87;68.62;101393.19;2077594;28;45395;-49
2021/10/19 02:44:04;;;;;;;;;12.33;11.67;;;;;18.86;68.75;101398.66;2069979;28;47141;-47
2021/10/19 02:45:07;;;;;;;;;13.75;12.75;;;;;18.87;68.63;101392.31;2079751;28;46773;-50
2021/10/19 02:46:07;;;;;;;;;14.75;14.50;;;;;18.87;68.47;101398.56;2088972;28;48429;-48
2021/10/19 02:47:07;;;;;;;;;13.00;12.00;;;;;18.87;68.39;101390.50;2091520;28;47174;-47
2021/10/19 02:48:08;;;;;;;;;13.50;13.50;;;;;18.87;68.28;101398.56;2078937;28;47210;-46
2021/10/19 02:49:09;;;;;;;;;12.00;12.00;;;;;18.88;68.50;101394.94;2074402;28;48193;-51
2021/10/19 02:50:10;;;;;;;;;13.00;13.00;;;;;18.88;68.68;101394.94;2083271;28;46525;-48
2021/10/19 02:51:11;;;;;;;;;14.25;13.00;;;;;18.87;68.35;101398.56;2083153;28;48474;-46
2021/10/19 02:52:11;;;;;;;;;13.00;13.00;;;;;18.88;68.32;101391.38;2083347;28;48106;-48
2021/10/19 02:53:12;;;;;;;;;11.00;11.00;;;;;18.87;68.37;101395.88;2083062;28;48130;-48
2021/10/19 02:54:12;;;;;;;;;16.33;14.00;;;;;18.87;68.46;101392.31;2083160;28;48143;-48
2021/10/19 02:55:16;;;;;;;;;14.00;13.67;;;;;18.88;68.49;101396.75;2082962;28;47804;-50
2021/10/19 02:56:17;;;;;;;;;13.25;13.25;;;;;18.88;68.86;101391.38;2079008;28;48333;-48
2021/10/19 02:57:21;;;;;;;;;15.00;14.00;;;;;18.87;68.44;101390.50;2082714;28;46666;-51
2021/10/19 02:58:21;;;;;;;;;15.25;15.00;;;;;18.88;68.38;101394.06;2091668;28;48134;-50
2021/10/19 02:59:22;;;;;;;;;15.67;15.67;;;;;18.87;68.81;101395.00;2087912;28;47108;-49
2021/10/19 03:00:22;;;;;;;;;15.33;15.00;;;;;18.88;68.54;101388.69;2083302;28;47075;-47
2021/10/19 03:01:23;;;;;;;;;9.67;9.67;;;;;18.87;68.33;101389.63;2081278;28;47391;-52
2021/10/19 03:02:23;;;;;;;;;15.33;14.67;;;;;18.87;68.53;101387.81;2082512;28;47910;-47
2021/10/19 03:03:24;;;;;;;;;14.33;13.67;;;;;18.88;68.74;101394.06;2091461;28;47573;-48
2021/10/19 03:04:24;;;;;;;;;12.00;12.00;;;;;18.89;68.64;101387.75;2077372;28;47199;-48
2021/10/19 03:05:24;;;;;;;;;13.33;12.33;;;;;18.88;68.59;101400.31;2074386;28;47979;-46
2021/10/19 03:06:25;;;;;;;;;14.33;14.33;;;;;18.88;68.51;101397.63;2083190;28;48333;-51
2021/10/19 03:07:25;;;;;;;;;12.33;11.33;;;;;18.89;68.40;101395.81;2086612;28;47315;-48
2021/10/19 03:08:26;;;;;;;;;13.33;13.33;;;;;18.89;68.75;101393.13;2082565;28;45569;-48
2021/10/19 03:09:26;;;;;;;;;15.00;14.00;;;;;18.90;68.71;101400.25;2082581;28;48225;-47
2021/10/19 03:10:27;;;;;;;;;14.00;14.00;;;;;18.88;68.33;101392.25;2091142;28;47193;-46
2021/10/19 03:11:27;;;;;;;;;18.00;15.75;;;;;18.89;68.49;101395.81;2085033;28;46523;-49
2021/10/19 03:12:28;;;;;;;;;11.67;11.33;;;;;18.89;68.59;101395.81;2088407;28;47968;-48
2021/10/19 03:13:28;;;;;;;;;13.00;13.00;;;;;18.89;68.69;101395.81;2082661;28;47243;-47
2021/10/19 03:14:29;;;;;;;;;13.00;13.00;;;;;18.89;68.59;101394.00;2082392;28;47252;-48
2021/10/19 03:15:29;;;;;;;;;17.00;13.00;;;;;18.89;68.82;101395.81;2085134;28;47356;-50
2021/10/19 03:16:30;;;;;;;;;14.00;14.00;;;;;18.90;68.48;101398.44;2082121;28;46421;-46
2021/10/19 03:17:30;;;;;;;;;13.00;12.33;;;;;18.89;68.57;101395.81;2080432;28;48007;-47
2021/10/19 03:18:31;;;;;;;;;11.00;10.67;;;;;18.88;68.74;101400.31;2075332;28;47190;-48
2021/10/19 03:19:31;;;;;;;;;13.67;13.67;;;;;18.90;68.30;101406.50;2082388;28;47173;-48
2021/10/19 03:20:32;;;;;;;;;17.00;14.00;;;;;18.90;68.49;101403.81;2074377;28;48248;-51
2021/10/19 03:21:32;;;;;;;;;13.67;12.67;;;;;18.89;68.59;101402.06;2080130;28;47335;-48
2021/10/19 03:22:33;;;;;;;;;14.00;13.00;;;;;18.90;68.61;101409.19;2088912;28;47079;-46
2021/10/19 03:23:33;;;;;;;;;15.67;15.67;;;;;18.89;68.58;101396.69;2087663;28;47140;-47
2021/10/19 03:24:34;;;;;;;;;14.00;13.00;;;;;18.90;68.60;101400.25;2087698;28;47089;-51
2021/10/19 03:25:35;;;;;;;;;12.33;12.33;;;;;18.90;68.71;101395.72;2086237;28;48303;-47
2021/10/19 03:26:35;;;;;;;;;13.67;12.67;;;;;18.91;68.77;101393.91;2082845;28;47378;-49
2021/10/19 03:27:36;;;;;;;;;13.67;13.33;;;;;18.90;68.72;101393.03;2086134;28;47143;-45
2021/10/19 03:28:36;;;;;;;;;13.67;13.33;;;;;18.90;68.72;101398.44;2090100;28;45334;-49
2021/10/19 03:29:37;;;;;;;;;12.00;12.00;;;;;18.90;68.45;101393.03;2091268;28;47258;-48
2021/10/19 03:30:37;;;;;;;;;11.33;11.33;;;;;18.91;68.72;101397.47;2091517;28;45590;-46
2021/10/19 03:31:38;;;;;;;;;13.67;11.00;;;;;18.91;68.61;101392.09;2091244;28;47257;-47
2021/10/19 03:32:38;;;;;;;;;13.00;13.00;;;;;18.91;68.51;101396.59;2091419;28;47508;-50
2021/10/19 03:33:40;;;;;;;;;13.00;12.00;;;;;18.90;68.67;101398.44;2091164;28;47282;-53
2021/10/19 03:34:40;;;;;;;;;13.50;13.50;;;;;18.91;68.53;101396.59;2091605;28;48193;-52
2021/10/19 03:35:41;;;;;;;;;13.00;13.00;;;;;18.91;68.75;101399.28;2094142;28;47602;-47
2021/10/19 03:36:41;;;;;;;;;14.33;13.33;;;;;18.91;68.47;101405.53;2091400;28;47916;-49
2021/10/19 03:37:41;;;;;;;;;12.00;11.67;;;;;18.91;68.64;101391.22;2085375;28;48163;-49
2021/10/19 03:38:42;;;;;;;;;13.33;11.67;;;;;18.91;68.74;101389.41;2091080;28;48176;-51
2021/10/19 03:39:42;;;;;;;;;11.67;11.67;;;;;18.90;68.62;101393.03;2081957;28;48257;-51
2021/10/19 03:40:43;;;;;;;;;10.33;8.67;;;;;18.92;68.49;101401.03;2082573;28;47256;-54
2021/10/19 03:41:43;;;;;;;;;13.67;11.33;;;;;18.91;68.70;101397.47;2087396;28;47140;-50
2021/10/19 03:42:47;;;;;;;;;14.00;13.00;;;;;18.91;68.72;101397.47;2092601;28;47546;-50
2021/10/19 03:43:48;;;;;;;;;10.00;10.00;;;;;18.90;68.71;101398.44;2080410;28;47323;-47
2021/10/19 03:44:48;;;;;;;;;15.67;12.67;;;;;18.91;68.80;101402.84;2082958;28;47122;-50
2021/10/19 03:45:49;;;;;;;;;15.33;13.00;;;;;18.91;68.61;101404.69;2090624;28;47303;-49
2021/10/19 03:46:49;;;;;;;;;14.00;14.00;;;;;18.91;68.92;101405.53;2083668;28;46407;-50
2021/10/19 03:47:50;;;;;;;;;11.33;11.33;;;;;18.92;68.89;101403.72;2086529;28;47486;-49
2021/10/19 03:48:50;;;;;;;;;13.33;13.00;;;;;18.91;68.85;101410.06;2091351;28;47226;-49
2021/10/19 03:49:51;;;;;;;;;12.33;11.67;;;;;18.91;68.41;101400.16;2082405;28;46209;-50
2021/10/19 03:50:51;;;;;;;;;13.00;13.00;;;;;18.91;68.81;101408.25;2074305;28;47233;-47
2021/10/19 03:51:52;;;;;;;;;13.00;13.00;;;;;18.91;68.65;101404.69;2080870;28;48238;-51
2021/10/19 03:52:57;;;;;;;;;15.33;14.33;;;;;18.92;68.53;101409.09;2090950;28;47398;-50
2021/10/19 03:53:58;;;;;;;;;14.25;13.75;;;;;18.92;68.83;101420.75;2082279;28;48189;-51
2021/10/19 03:54:58;;;;;;;;;11.33;11.33;;;;;18.92;68.63;101415.34;2074593;28;47275;-47
2021/10/19 03:55:58;;;;;;;;;14.33;14.00;;;;;18.93;68.91;101422.53;2082057;28;47588;-48
2021/10/19 03:56:59;;;;;;;;;12.00;12.00;;;;;18.93;68.65;101416.22;2082965;28;48170;-50
2021/10/19 03:57:59;;;;;;;;;14.33;13.00;;;;;18.92;69.07;101417.19;2090442;28;47388;-49
2021/10/19 03:59:00;;;;;;;;;16.33;15.00;;;;;18.93;69.04;101417.13;2091263;28;46867;-47
2021/10/19 04:00:00;;;;;;;;;12.25;11.25;;;;;18.94;69.10;101415.31;2082375;28;45669;-50
2021/10/19 04:01:01;;;;;;;;;13.33;12.00;;;;;18.94;68.97;101407.25;2081027;28;48025;-47
2021/10/19 04:02:01;;;;;;;;;13.00;13.00;;;;;18.94;69.11;101418.88;2081767;28;47280;-52
2021/10/19 04:03:02;;;;;;;;;11.00;11.00;;;;;18.95;69.07;101417.06;2087934;28;48094;-49
2021/10/19 04:04:02;;;;;;;;;12.00;11.00;;;;;18.94;69.11;101421.56;2078135;28;45837;-51
2021/10/19 04:05:03;;;;;;;;;15.00;14.67;;;;;18.94;68.90;101416.19;2076446;28;45254;-48
2021/10/19 04:06:04;;;;;;;;;12.00;11.50;;;;;18.93;68.84;101409.06;2084199;28;47361;-50
2021/10/19 04:07:04;;;;;;;;;13.00;11.67;;;;;18.93;68.95;101416.22;2086422;28;47318;-47
2021/10/19 04:08:05;;;;;;;;;11.00;11.00;;;;;18.93;68.87;101411.75;2083849;28;48463;-49
2021/10/19 04:09:06;;;;;;;;;8.67;8.67;;;;;18.94;68.93;101410.81;2077775;28;47349;-49
2021/10/19 04:10:06;;;;;;;;;12.00;12.00;;;;;18.93;69.00;101418.94;2076944;28;47299;-50
2021/10/19 04:11:07;;;;;;;;;11.33;10.33;;;;;18.93;69.03;101411.75;2084539;28;47429;-50
2021/10/19 04:12:08;;;;;;;;;13.00;13.00;;;;;18.93;68.67;101422.53;2078838;28;46525;-49
2021/10/19 04:13:09;;;;;;;;;13.00;12.75;;;;;18.93;68.74;101427.91;2071858;28;48189;-48
2021/10/19 04:14:10;;;;;;;;;12.67;12.67;;;;;18.93;68.84;101427.91;2069595;28;46990;-46
2021/10/19 04:15:11;;;;;;;;;10.67;10.33;;;;;18.92;68.65;101423.44;2075196;28;47290;-49
2021/10/19 04:16:12;;;;;;;;;12.25;12.25;;;;;18.92;68.92;101423.44;2086704;28;46556;-50
2021/10/19 04:17:16;;;;;;;;;9.75;9.75;;;;;18.94;68.95;101434.16;2085952;28;48332;-47
2021/10/19 04:18:16;;;;;;;;;15.00;13.50;;;;;18.93;68.75;101433.28;2085859;28;47234;-49
2021/10/19 04:19:18;;;;;;;;;12.33;12.33;;;;;18.93;68.74;101435.97;2088029;28;45208;-47
2021/10/19 04:20:18;;;;;;;;;14.00;14.00;;;;;18.93;69.07;101435.97;2082139;28;46058;-50
2021/10/19 04:21:19;;;;;;;;;12.00;11.33;;;;;18.94;68.71;101423.38;2068412;28;49213;-46
2021/10/19 04:22:22;;;;;;;;;13.00;13.00;;;;;18.93;68.79;101433.28;2074020;28;47693;-51
2021/10/19 04:23:23;;;;;;;;;13.50;12.25;;;;;18.94;68.71;101426.94;2077302;28;46412;-49
2021/10/19 04:24:23;;;;;;;;;12.50;12.50;;;;;18.94;68.77;101434.16;2086412;28;48145;-50
2021/10/19 04:25:24;;;;;;;;;12.33;12.33;;;;;18.94;68.99;101429.63;2082675;28;46890;-49
2021/10/19 04:26:24;;;;;;;;;12.67;12.67;;;;;18.94;68.63;101435.03;2078193;28;47235;-48
2021/10/19 04:27:25;;;;;;;;;19.00;17.33;;;;;18.94;69.05;101437.72;2082152;28;47218;-49
2021/10/19 04:28:26;;;;;;;;;12.67;12.33;;;;;18.94;68.85;101432.34;2086529;28;47987;-47
2021/10/19 04:29:26;;;;;;;;;12.00;10.67;;;;;18.95;69.05;101436.75;2089689;28;47240;-47
2021/10/19 04:30:27;;;;;;;;;11.33;11.33;;;;;18.95;68.82;101427.81;2088252;28;48211;-49
2021/10/19 04:31:29;;;;;;;;;15.25;14.50;;;;;18.95;68.77;101430.50;2077433;28;45336;-48
2021/10/19 04:32:30;;;;;;;;;12.20;12.00;;;;;18.96;68.92;101430.44;2087733;28;48396;-47
2021/10/19 04:33:31;;;;;;;;;12.00;12.00;;;;;18.95;68.98;101427.81;2091350;28;47292;-52
2021/10/19 04:34:31;;;;;;;;;10.33;10.33;;;;;18.95;68.98;101435.91;2085074;28;47282;-50
2021/10/19 04:35:32;;;;;;;;;12.67;12.00;;;;;18.95;68.86;101435.91;2081243;28;46146;-49
2021/10/19 04:36:33;;;;;;;;;9.67;9.67;;;;;18.94;68.71;101437.72;2092047;28;47272;-50